Time;durP1;ratioP1;P1;durP2;ratioP2;P2;SDS_P1;SDS_P2;PMS_P1;PMS_P2;Temp;Humidity;BMP_temperature;BMP_pressure;BME280_temperature;BME280_humidity;BME280_pressure;Samples;Min_cycle;Max_cycle;Signal;HPM_P1;HPM_P2
2022/07/13 00:00:32;;;;;;;;;;;;;;;26.83;42.24;99996.75;2059849;28;19917;-69
2022/07/13 00:01:32;;;;;;;;;;;;;;;26.84;41.99;99998.44;2064364;28;19917;-69
2022/07/13 00:02:33;;;;;;;;;;;;;;;26.84;42.30;99997.59;2061785;28;19925;-69
2022/07/13 00:03:33;;;;;;;;;;;;;;;26.83;42.23;99991.22;2067234;28;20000;-69
2022/07/13 00:04:34;;;;;;;;;;;;;;;26.83;42.12;99998.66;2065330;28;20550;-69
2022/07/13 00:05:34;;;;;;;;;;;;;;;26.82;42.15;100000.56;2060157;28;19940;-69
2022/07/13 00:06:34;;;;;;;;;;;;;;;26.82;42.05;100000.56;2065597;28;20333;-70
2022/07/13 00:07:35;;;;;;;;;;;;;;;26.82;42.15;100000.56;2061612;28;19913;-69
2022/07/13 00:08:35;;;;;;;;;;;;;;;26.83;42.28;99995.91;2067208;28;19927;-70
2022/07/13 00:09:36;;;;;;;;;;;;;;;26.83;42.38;99995.91;2066050;28;19917;-69
2022/07/13 00:10:36;;;;;;;;;;;;;;;26.82;42.33;99996.94;2061929;28;20328;-69
2022/07/13 00:11:36;;;;;;;;;;;;;;;26.82;42.16;100003.31;2065132;28;20003;-69
2022/07/13 00:12:36;;;;;;;;;;;;;;;26.82;42.27;100000.56;2063528;28;19979;-69
2022/07/13 00:13:37;;;;;;;;;;;;;;;26.82;42.20;99989.50;2063192;28;19921;-69
2022/07/13 00:14:37;;;;;;;;;;;;;;;26.82;42.23;99991.41;2064780;28;20805;-69
2022/07/13 00:15:38;;;;;;;;;;;;;;;26.82;42.34;99995.03;2059504;28;19925;-69
2022/07/13 00:16:38;;;;;;;;;;;;;;;26.82;42.49;99995.03;2064297;28;19944;-69
2022/07/13 00:17:38;;;;;;;;;;;;;;;26.81;42.50;99993.34;2063910;28;19913;-69
2022/07/13 00:18:38;;;;;;;;;;;;;;;26.82;42.18;99995.03;2063062;28;19913;-69
2022/07/13 00:19:39;;;;;;;;;;;;;;;26.82;42.37;99994.19;2066232;28;19913;-69
2022/07/13 00:20:39;;;;;;;;;;;;;;;26.81;42.13;99990.56;2067324;28;19917;-69
2022/07/13 00:21:39;;;;;;;;;;;;;;;26.83;42.35;99991.22;2067748;28;19913;-69
2022/07/13 00:22:39;;;;;;;;;;;;;;;26.81;42.29;99990.56;2066920;28;19917;-69
2022/07/13 00:23:40;;;;;;;;;;;;;;;26.82;42.14;99996.94;2067530;28;19966;-69
2022/07/13 00:24:40;;;;;;;;;;;;;;;26.82;42.21;99989.50;2066942;28;19948;-69
2022/07/13 00:25:41;;;;;;;;;;;;;;;26.81;42.30;99990.56;2062956;28;19913;-70
2022/07/13 00:26:41;;;;;;;;;;;;;;;26.82;42.30;99994.19;2059938;28;19956;-69
2022/07/13 00:27:41;;;;;;;;;;;;;;;26.82;42.34;100000.56;2066697;28;19917;-69
2022/07/13 00:28:42;;;;;;;;;;;;;;;26.82;42.21;99994.19;2065981;28;19918;-69
2022/07/13 00:29:42;;;;;;;;;;;;;;;26.81;42.47;99998.88;2061524;28;20022;-69
2022/07/13 00:30:42;;;;;;;;;;;;;;;26.82;42.28;100005.25;2061150;28;19917;-69
2022/07/13 00:31:43;;;;;;;;;;;;;;;26.82;42.32;99994.19;2067520;28;19917;-69
2022/07/13 00:32:43;;;;;;;;;;;;;;;26.82;42.21;99994.19;2063418;28;19967;-69
2022/07/13 00:33:43;;;;;;;;;;;;;;;26.81;42.19;99996.09;2064013;28;20212;-69
2022/07/13 00:34:44;;;;;;;;;;;;;;;26.81;42.49;100004.38;2067873;28;19948;-69
2022/07/13 00:35:44;;;;;;;;;;;;;;;26.81;42.24;99992.47;2064090;28;19917;-69
2022/07/13 00:36:44;;;;;;;;;;;;;;;26.82;42.54;99999.72;2060538;28;19995;-69
2022/07/13 00:37:45;;;;;;;;;;;;;;;26.80;42.41;99997.16;2066358;28;19917;-69
2022/07/13 00:38:45;;;;;;;;;;;;;;;26.80;42.45;100002.69;2064957;28;19917;-69
2022/07/13 00:39:45;;;;;;;;;;;;;;;26.81;42.32;100004.38;2060958;28;19917;-70
2022/07/13 00:40:45;;;;;;;;;;;;;;;26.81;42.19;100001.63;2060292;28;19984;-70
2022/07/13 00:41:47;;;;;;;;;;;;;;;26.81;42.39;100004.38;2062354;28;20300;-70
2022/07/13 00:42:47;;;;;;;;;;;;;;;26.80;42.34;100005.47;2059912;28;20384;-69
2022/07/13 00:43:47;;;;;;;;;;;;;;;26.80;42.54;100002.69;2064854;28;20733;-69
2022/07/13 00:44:48;;;;;;;;;;;;;;;26.81;42.36;100009.91;2065166;28;19917;-69
2022/07/13 00:45:50;;;;;;;;;;;;;;;26.81;42.57;100007.16;2068478;28;19921;-69
2022/07/13 00:46:52;;;;;;;;;;;;;;;26.82;42.43;100003.31;2063950;28;19913;-69
2022/07/13 00:47:53;;;;;;;;;;;;;;;26.81;42.37;100006.31;2067974;28;20138;-70
2022/07/13 00:48:53;;;;;;;;;;;;;;;26.81;42.38;100004.38;2063145;28;20553;-69
2022/07/13 00:49:54;;;;;;;;;;;;;;;26.81;42.62;100006.31;2061981;28;20455;-69
2022/07/13 00:50:54;;;;;;;;;;;;;;;26.81;42.18;100009.91;2064775;28;19917;-70
2022/07/13 00:51:54;;;;;;;;;;;;;;;26.81;42.11;100009.06;2065068;28;19923;-69
2022/07/13 00:52:55;;;;;;;;;;;;;;;26.82;42.15;100011.63;2061725;28;19921;-69
2022/07/13 00:53:55;;;;;;;;;;;;;;;26.81;42.24;100004.38;2064666;28;19910;-69
2022/07/13 00:54:56;;;;;;;;;;;;;;;26.81;42.06;100007.16;2067445;28;20283;-69
2022/07/13 00:55:56;;;;;;;;;;;;;;;26.81;42.11;100009.91;2069199;28;19935;-69
2022/07/13 00:56:59;;;;;;;;;;;;;;;26.81;42.08;100009.91;2065954;28;19917;-69
2022/07/13 00:57:59;;;;;;;;;;;;;;;26.81;42.28;100009.91;2067153;28;19940;-69
2022/07/13 00:59:00;;;;;;;;;;;;;;;26.81;42.16;100009.91;2068930;28;19924;-69
2022/07/13 01:00:06;;;;;;;;;;;;;;;26.82;42.38;100010.78;2065731;28;20063;-69
2022/07/13 01:01:06;;;;;;;;;;;;;;;26.81;42.40;100015.44;2066636;28;20207;-69
2022/07/13 01:02:06;;;;;;;;;;;;;;;26.81;42.14;100015.44;2063867;28;19980;-69
2022/07/13 01:03:07;;;;;;;;;;;;;;;26.82;42.42;100016.31;2061475;28;20157;-69
2022/07/13 01:04:07;;;;;;;;;;;;;;;26.81;42.43;100015.44;2064529;28;20239;-69
2022/07/13 01:05:09;;;;;;;;;;;;;;;26.82;42.51;100013.53;2064530;28;20293;-69
2022/07/13 01:06:10;;;;;;;;;;;;;;;26.82;42.28;100011.63;2060816;28;20048;-69
2022/07/13 01:07:11;;;;;;;;;;;;;;;26.81;42.44;100012.69;2064862;28;19917;-69
2022/07/13 01:08:11;;;;;;;;;;;;;;;26.80;42.32;100002.69;2064686;28;20024;-69
2022/07/13 01:09:11;;;;;;;;;;;;;;;26.81;42.47;100003.53;2069851;28;19963;-69
2022/07/13 01:10:12;;;;;;;;;;;;;;;26.80;42.36;100001.81;2067139;28;19937;-69
2022/07/13 01:11:12;;;;;;;;;;;;;;;26.81;42.05;100003.53;2065979;28;19987;-69
2022/07/13 01:12:12;;;;;;;;;;;;;;;26.80;41.96;100002.69;2065201;28;19960;-69
2022/07/13 01:13:16;;;;;;;;;;;;;;;26.80;41.86;99997.16;2060863;28;19913;-69
2022/07/13 01:14:16;;;;;;;;;;;;;;;26.80;42.07;99994.41;2064620;28;19909;-69
2022/07/13 01:15:17;;;;;;;;;;;;;;;26.80;42.18;99999.94;2064718;28;19952;-70
2022/07/13 01:16:20;;;;;;;;;;;;;;;26.80;42.08;100002.69;2062722;28;20618;-69
2022/07/13 01:17:20;;;;;;;;;;;;;;;26.80;41.93;100002.69;2060689;28;19914;-69
2022/07/13 01:18:21;;;;;;;;;;;;;;;26.81;42.08;100009.91;2060008;28;19974;-69
2022/07/13 01:19:22;;;;;;;;;;;;;;;26.80;41.90;100002.69;2060207;28;20696;-70
2022/07/13 01:20:23;;;;;;;;;;;;;;;26.80;42.07;100007.34;2059974;28;19920;-69
2022/07/13 01:21:24;;;;;;;;;;;;;;;26.80;41.97;100002.69;2061703;28;19939;-69
2022/07/13 01:22:25;;;;;;;;;;;;;;;26.80;42.14;100002.69;2061625;28;19917;-69
2022/07/13 01:23:26;;;;;;;;;;;;;;;26.80;41.88;99999.94;2061314;28;19921;-69
2022/07/13 01:24:30;;;;;;;;;;;;;;;26.81;41.94;100001.63;2060787;28;20488;-69
2022/07/13 01:25:30;;;;;;;;;;;;;;;26.80;41.88;99999.94;2069402;28;20730;-69
2022/07/13 01:26:31;;;;;;;;;;;;;;;26.80;42.04;99991.63;2058930;28;20281;-69
2022/07/13 01:27:32;;;;;;;;;;;;;;;26.81;41.93;100003.53;2066909;28;20694;-70
2022/07/13 01:28:33;;;;;;;;;;;;;;;26.81;41.93;99993.34;2062261;28;19917;-69
2022/07/13 01:29:33;;;;;;;;;;;;;;;26.80;41.95;99991.63;2067014;28;20717;-69
2022/07/13 01:30:34;;;;;;;;;;;;;;;26.80;41.96;99994.41;2060757;28;19914;-69
2022/07/13 01:31:34;;;;;;;;;;;;;;;26.80;42.02;100002.69;2067854;28;19913;-69
2022/07/13 01:32:44;;;;;;;;;;;;;;;26.81;41.95;99998.00;2066616;28;19917;-69
2022/07/13 01:33:44;;;;;;;;;;;;;;;26.80;41.87;100002.69;2063769;28;19909;-69
2022/07/13 01:34:44;;;;;;;;;;;;;;;26.81;42.00;100004.38;2067533;28;19919;-69
2022/07/13 01:35:44;;;;;;;;;;;;;;;26.80;42.10;99997.16;2063921;28;19909;-69
2022/07/13 01:36:45;;;;;;;;;;;;;;;26.80;42.19;99997.16;2065178;28;19925;-69
2022/07/13 01:37:47;;;;;;;;;;;;;;;26.80;42.32;99997.16;2065701;28;19924;-69
2022/07/13 01:38:47;;;;;;;;;;;;;;;26.80;42.05;99993.53;2066228;28;19917;-69
2022/07/13 01:39:47;;;;;;;;;;;;;;;26.79;42.02;99992.69;2067012;28;20027;-70
2022/07/13 01:40:48;;;;;;;;;;;;;;;26.79;42.09;99989.91;2059827;28;19918;-69
2022/07/13 01:41:48;;;;;;;;;;;;;;;26.80;42.17;99991.63;2059698;28;20008;-69
2022/07/13 01:42:49;;;;;;;;;;;;;;;26.80;42.08;99991.63;2066513;28;19971;-69
2022/07/13 01:43:50;;;;;;;;;;;;;;;26.80;41.95;99988.00;2064854;28;20104;-69
2022/07/13 01:44:50;;;;;;;;;;;;;;;26.79;42.29;99989.91;2060911;28;19909;-69
2022/07/13 01:45:51;;;;;;;;;;;;;;;26.79;42.03;99987.16;2063371;28;20243;-70
2022/07/13 01:46:51;;;;;;;;;;;;;;;26.80;42.10;99990.75;2059461;28;20124;-69
2022/07/13 01:47:55;;;;;;;;;;;;;;;26.80;42.47;99986.09;2060630;28;20211;-69
2022/07/13 01:48:56;;;;;;;;;;;;;;;26.80;42.26;99986.09;2059646;28;20705;-69
2022/07/13 01:49:56;;;;;;;;;;;;;;;26.79;42.23;99989.06;2060768;28;20283;-69
2022/07/13 01:50:56;;;;;;;;;;;;;;;26.79;42.31;99984.38;2064550;28;19917;-69
2022/07/13 01:51:57;;;;;;;;;;;;;;;26.79;42.17;99984.38;2059609;28;20000;-69
2022/07/13 01:52:57;;;;;;;;;;;;;;;26.79;42.27;99984.38;2067120;28;19921;-69
2022/07/13 01:53:58;;;;;;;;;;;;;;;26.79;42.21;99989.91;2059357;28;19947;-69
2022/07/13 01:54:58;;;;;;;;;;;;;;;26.79;42.09;99984.38;2061921;28;20360;-69
2022/07/13 01:55:58;;;;;;;;;;;;;;;26.79;42.04;99987.16;2060174;28;19921;-70
2022/07/13 01:56:58;;;;;;;;;;;;;;;26.79;41.73;99989.91;2061861;28;19932;-69
2022/07/13 01:57:59;;;;;;;;;;;;;;;26.79;41.67;99992.69;2064322;28;20009;-69
2022/07/13 01:59:00;;;;;;;;;;;;;;;26.78;41.88;99985.44;2066873;28;19980;-69
2022/07/13 02:00:02;;;;;;;;;;;;;;;26.79;41.72;99987.16;2067465;28;20410;-69
2022/07/13 02:01:02;;;;;;;;;;;;;;;26.79;41.96;99994.59;2063292;28;20291;-69
2022/07/13 02:02:02;;;;;;;;;;;;;;;26.78;42.00;99988.22;2060386;28;19917;-69
2022/07/13 02:03:03;;;;;;;;;;;;;;;26.78;41.96;99982.69;2061399;28;19964;-69
2022/07/13 02:04:04;;;;;;;;;;;;;;;26.78;41.98;99982.69;2059874;28;19925;-69
2022/07/13 02:05:04;;;;;;;;;;;;;;;26.79;42.07;99984.38;2065623;28;19925;-69
2022/07/13 02:06:05;;;;;;;;;;;;;;;26.78;41.81;99985.44;2062509;28;20957;-69
2022/07/13 02:07:06;;;;;;;;;;;;;;;26.78;41.90;99979.91;2060014;28;20482;-69
2022/07/13 02:08:06;;;;;;;;;;;;;;;26.79;41.91;99986.28;2061288;28;19917;-69
2022/07/13 02:09:07;;;;;;;;;;;;;;;26.79;41.89;99989.91;2063045;28;20498;-70
2022/07/13 02:10:08;;;;;;;;;;;;;;;26.79;42.12;99991.81;2060106;28;19922;-69
2022/07/13 02:11:13;;;;;;;;;;;;;;;26.79;42.16;99989.06;2062248;28;20801;-69
2022/07/13 02:12:14;;;;;;;;;;;;;;;26.79;41.89;99989.91;2067403;28;20491;-69
2022/07/13 02:13:14;;;;;;;;;;;;;;;26.78;42.20;99990.97;2065025;28;20366;-69
2022/07/13 02:14:14;;;;;;;;;;;;;;;26.79;42.19;99994.59;2067932;28;20724;-69
2022/07/13 02:15:14;;;;;;;;;;;;;;;26.78;42.06;99993.75;2066340;28;19932;-69
2022/07/13 02:16:15;;;;;;;;;;;;;;;26.79;42.01;99989.06;2065420;28;19917;-69
2022/07/13 02:17:15;;;;;;;;;;;;;;;26.78;42.05;99988.22;2062968;28;19964;-69
2022/07/13 02:18:16;;;;;;;;;;;;;;;26.78;42.26;99996.50;2066108;28;20308;-69
2022/07/13 02:19:17;;;;;;;;;;;;;;;26.79;42.25;99994.59;2067417;28;19917;-69
2022/07/13 02:20:17;;;;;;;;;;;;;;;26.78;42.27;99998.41;2061126;28;19936;-70
2022/07/13 02:21:17;;;;;;;;;;;;;;;26.77;42.24;99992.00;2067199;28;20327;-71
2022/07/13 02:22:18;;;;;;;;;;;;;;;26.78;41.98;99993.75;2065381;28;20386;-70
2022/07/13 02:23:18;;;;;;;;;;;;;;;26.77;42.01;100003.06;2069474;28;20411;-70
2022/07/13 02:24:18;;;;;;;;;;;;;;;26.78;42.13;100002.03;2065892;28;20355;-70
2022/07/13 02:25:19;;;;;;;;;;;;;;;26.77;42.06;100002.22;2069465;28;19913;-70
2022/07/13 02:26:19;;;;;;;;;;;;;;;26.77;42.04;99997.53;2062280;28;19982;-70
2022/07/13 02:27:20;;;;;;;;;;;;;;;26.77;42.27;100003.06;2064464;28;19917;-70
2022/07/13 02:28:20;;;;;;;;;;;;;;;26.77;42.32;100003.06;2063938;28;20476;-70
2022/07/13 02:29:20;;;;;;;;;;;;;;;26.75;42.19;100005.19;2064018;28;19931;-70
2022/07/13 02:30:20;;;;;;;;;;;;;;;26.75;42.17;100002.41;2064947;28;20353;-70
2022/07/13 02:31:21;;;;;;;;;;;;;;;26.76;42.29;100003.31;2061490;28;20501;-70
2022/07/13 02:32:21;;;;;;;;;;;;;;;26.76;42.17;100003.31;2067496;28;20358;-70
2022/07/13 02:33:21;;;;;;;;;;;;;;;26.75;42.16;99994.13;2067764;28;19909;-70
2022/07/13 02:34:26;;;;;;;;;;;;;;;26.75;42.47;99998.81;2069368;28;20895;-70
2022/07/13 02:35:27;;;;;;;;;;;;;;;26.75;42.50;99996.88;2067389;28;20312;-70
2022/07/13 02:36:27;;;;;;;;;;;;;;;26.75;42.55;99984.97;2063919;28;19925;-69
2022/07/13 02:37:27;;;;;;;;;;;;;;;26.75;42.28;99993.28;2064615;28;20003;-70
2022/07/13 02:38:28;;;;;;;;;;;;;;;26.74;42.29;99995.19;2066522;28;20281;-69
2022/07/13 02:39:28;;;;;;;;;;;;;;;26.74;42.44;99992.44;2068962;28;20280;-70
2022/07/13 02:40:28;;;;;;;;;;;;;;;26.74;42.47;99984.13;2065827;28;19917;-70
2022/07/13 02:41:29;;;;;;;;;;;;;;;26.74;42.42;99992.44;2060855;28;19949;-70
2022/07/13 02:42:29;;;;;;;;;;;;;;;26.74;42.44;99997.97;2061067;28;20338;-70
2022/07/13 02:43:29;;;;;;;;;;;;;;;26.74;42.35;99997.97;2061799;28;20201;-70
2022/07/13 02:44:30;;;;;;;;;;;;;;;26.74;42.56;99992.44;2061997;28;19917;-70
2022/07/13 02:45:30;;;;;;;;;;;;;;;26.74;42.51;99997.97;2065488;28;19924;-70
2022/07/13 02:46:31;;;;;;;;;;;;;;;26.75;42.24;99998.81;2066497;28;20339;-70
2022/07/13 02:47:31;;;;;;;;;;;;;;;26.73;42.30;99994.34;2065871;28;19925;-70
2022/07/13 02:48:33;;;;;;;;;;;;;;;26.73;42.49;99997.13;2065859;28;20262;-70
2022/07/13 02:49:33;;;;;;;;;;;;;;;26.73;42.33;99993.50;2062845;28;20930;-70
2022/07/13 02:50:33;;;;;;;;;;;;;;;26.74;42.21;99997.97;2067521;28;20327;-70
2022/07/13 02:51:34;;;;;;;;;;;;;;;26.73;42.20;99997.13;2063869;28;20339;-70
2022/07/13 02:52:35;;;;;;;;;;;;;;;26.74;42.29;99992.44;2065360;28;20089;-70
2022/07/13 02:53:35;;;;;;;;;;;;;;;26.74;42.22;99995.19;2066543;28;19979;-70
2022/07/13 02:54:35;;;;;;;;;;;;;;;26.73;42.44;99996.25;2063626;28;19913;-70
2022/07/13 02:55:36;;;;;;;;;;;;;;;26.73;42.47;99994.34;2063439;28;20395;-70
2022/07/13 02:56:36;;;;;;;;;;;;;;;26.73;42.13;99986.06;2065011;28;20208;-70
2022/07/13 02:57:37;;;;;;;;;;;;;;;26.74;42.48;99997.97;2064751;28;19917;-70
2022/07/13 02:58:38;;;;;;;;;;;;;;;26.73;42.07;99993.50;2065203;28;19948;-70
2022/07/13 02:59:38;;;;;;;;;;;;;;;26.73;42.29;99996.25;2067898;28;20028;-70
2022/07/13 03:00:38;;;;;;;;;;;;;;;26.73;42.08;99996.25;2066332;28;19939;-70
2022/07/13 03:01:39;;;;;;;;;;;;;;;26.73;42.09;99999.03;2062274;28;20351;-70
2022/07/13 03:02:39;;;;;;;;;;;;;;;26.73;42.11;99996.25;2063094;28;19983;-69
2022/07/13 03:03:39;;;;;;;;;;;;;;;26.74;42.39;100000.72;2064464;28;19913;-69
2022/07/13 03:04:40;;;;;;;;;;;;;;;26.72;42.43;100000.91;2067141;28;19923;-69
2022/07/13 03:05:40;;;;;;;;;;;;;;;26.73;42.40;99999.03;2060461;28;19918;-69
2022/07/13 03:06:40;;;;;;;;;;;;;;;26.72;42.20;100006.44;2064962;28;19964;-70
2022/07/13 03:07:41;;;;;;;;;;;;;;;26.72;42.50;100000.91;2068622;28;19940;-69
2022/07/13 03:08:41;;;;;;;;;;;;;;;26.72;42.22;100002.84;2062770;28;20586;-70
2022/07/13 03:09:42;;;;;;;;;;;;;;;26.73;42.23;100007.31;2064688;28;19933;-69
2022/07/13 03:10:42;;;;;;;;;;;;;;;26.72;42.20;100002.84;2067763;28;20284;-69
2022/07/13 03:11:42;;;;;;;;;;;;;;;26.71;42.42;99999.22;2065141;28;19909;-69
2022/07/13 03:12:43;;;;;;;;;;;;;;;26.72;42.59;99994.53;2068503;28;19917;-70
2022/07/13 03:13:43;;;;;;;;;;;;;;;26.71;42.53;100002.00;2066495;28;19909;-69
2022/07/13 03:14:43;;;;;;;;;;;;;;;26.71;42.28;99998.38;2065627;28;19949;-69
2022/07/13 03:15:43;;;;;;;;;;;;;;;26.71;42.64;99998.38;2065219;28;19944;-69
2022/07/13 03:16:44;;;;;;;;;;;;;;;26.71;42.34;99995.59;2063514;28;20387;-69
2022/07/13 03:17:44;;;;;;;;;;;;;;;26.71;42.40;99999.22;2066270;28;19916;-69
2022/07/13 03:18:44;;;;;;;;;;;;;;;26.72;42.59;99994.53;2066651;28;20269;-70
2022/07/13 03:19:45;;;;;;;;;;;;;;;26.71;42.30;99993.69;2065618;28;19916;-70
2022/07/13 03:20:45;;;;;;;;;;;;;;;26.71;42.50;99992.84;2068552;28;19964;-70
2022/07/13 03:21:45;;;;;;;;;;;;;;;26.71;42.44;99987.31;2064703;28;19916;-70
2022/07/13 03:22:47;;;;;;;;;;;;;;;26.72;42.40;99991.78;2067003;28;19956;-70
2022/07/13 03:23:48;;;;;;;;;;;;;;;26.71;42.30;99992.84;2066992;28;19929;-69
2022/07/13 03:24:48;;;;;;;;;;;;;;;26.72;42.52;99997.31;2066357;28;19909;-70
2022/07/13 03:25:49;;;;;;;;;;;;;;;26.71;42.59;99992.84;2068882;28;19913;-70
2022/07/13 03:26:49;;;;;;;;;;;;;;;26.71;42.25;99992.84;2065747;28;20007;-70
2022/07/13 03:27:49;;;;;;;;;;;;;;;26.72;42.57;99997.31;2068286;28;20395;-70
2022/07/13 03:28:49;;;;;;;;;;;;;;;26.72;42.46;99994.53;2066224;28;20545;-70
2022/07/13 03:29:50;;;;;;;;;;;;;;;26.71;42.32;99995.59;2065652;28;19921;-70
2022/07/13 03:30:50;;;;;;;;;;;;;;;26.72;42.45;99991.78;2068466;28;19917;-70
2022/07/13 03:31:50;;;;;;;;;;;;;;;26.71;42.39;99987.31;2066747;28;19919;-70
2022/07/13 03:32:50;;;;;;;;;;;;;;;26.71;42.37;99990.09;2067301;28;19967;-70
2022/07/13 03:33:51;;;;;;;;;;;;;;;26.72;42.38;99991.78;2068157;28;19944;-70
2022/07/13 03:34:51;;;;;;;;;;;;;;;26.71;42.37;99992.84;2066229;28;19921;-70
2022/07/13 03:35:51;;;;;;;;;;;;;;;26.70;42.36;99991.13;2068226;28;19964;-70
2022/07/13 03:36:52;;;;;;;;;;;;;;;26.70;42.42;99992.00;2066138;28;19995;-69
2022/07/13 03:37:52;;;;;;;;;;;;;;;26.70;42.68;99997.53;2067098;28;19925;-69
2022/07/13 03:38:52;;;;;;;;;;;;;;;26.70;42.42;99994.75;2077209;28;19917;-69
2022/07/13 03:39:52;;;;;;;;;;;;;;;26.71;42.48;99995.59;2065868;28;19963;-69
2022/07/13 03:40:53;;;;;;;;;;;;;;;26.71;42.46;99999.22;2060516;28;19969;-69
2022/07/13 03:41:53;;;;;;;;;;;;;;;26.71;42.43;99998.38;2066848;28;19910;-69
2022/07/13 03:42:53;;;;;;;;;;;;;;;26.70;42.70;99992.00;2065678;28;20023;-69
2022/07/13 03:43:53;;;;;;;;;;;;;;;26.70;42.53;99994.75;2060796;28;19917;-69
2022/07/13 03:44:54;;;;;;;;;;;;;;;26.70;42.68;100002.19;2064850;28;19917;-70
2022/07/13 03:45:54;;;;;;;;;;;;;;;26.69;42.72;100000.47;2061790;28;20044;-70
2022/07/13 03:46:54;;;;;;;;;;;;;;;26.70;42.78;100002.19;2062006;28;19906;-70
2022/07/13 03:47:55;;;;;;;;;;;;;;;26.70;42.59;100002.19;2063223;28;19917;-70
2022/07/13 03:48:55;;;;;;;;;;;;;;;26.69;42.60;100006.00;2068446;28;19923;-70
2022/07/13 03:49:56;;;;;;;;;;;;;;;26.69;42.50;100001.31;2061181;28;19986;-70
2022/07/13 03:50:56;;;;;;;;;;;;;;;26.69;42.75;99997.72;2061284;28;20286;-70
2022/07/13 03:51:57;;;;;;;;;;;;;;;26.68;42.47;99999.63;2063217;28;20308;-70
2022/07/13 03:52:57;;;;;;;;;;;;;;;26.68;42.72;99999.63;2063792;28;20616;-70
2022/07/13 03:53:57;;;;;;;;;;;;;;;26.69;42.51;100003.25;2061895;28;19936;-70
2022/07/13 03:54:58;;;;;;;;;;;;;;;26.67;42.63;99997.91;2063691;28;19921;-70
2022/07/13 03:55:58;;;;;;;;;;;;;;;26.68;42.60;99998.78;2066104;28;19924;-69
2022/07/13 03:56:58;;;;;;;;;;;;;;;26.68;42.33;99998.78;2068356;28;19917;-70
2022/07/13 03:57:58;;;;;;;;;;;;;;;26.68;42.27;100009.84;2067717;28;19936;-70
2022/07/13 03:58:59;;;;;;;;;;;;;;;26.68;42.43;100001.56;2060124;28;20141;-70
2022/07/13 04:00:00;;;;;;;;;;;;;;;26.69;42.42;100003.25;2061713;28;20547;-70
2022/07/13 04:01:00;;;;;;;;;;;;;;;26.68;42.55;100013.47;2064261;28;19916;-70
2022/07/13 04:02:00;;;;;;;;;;;;;;;26.68;42.36;100009.84;2066897;28;19995;-69
2022/07/13 04:03:00;;;;;;;;;;;;;;;26.69;42.65;100011.53;2067529;28;20714;-69
2022/07/13 04:04:01;;;;;;;;;;;;;;;26.69;42.50;100017.06;2065777;28;19963;-69
2022/07/13 04:05:01;;;;;;;;;;;;;;;26.68;42.72;100019.00;2066801;28;19917;-69
2022/07/13 04:06:04;;;;;;;;;;;;;;;26.68;42.64;100016.22;2066271;28;20964;-69
2022/07/13 04:07:04;;;;;;;;;;;;;;;26.68;42.77;100015.38;2066834;28;20904;-69
2022/07/13 04:08:04;;;;;;;;;;;;;;;26.69;42.60;100022.59;2061103;28;19917;-69
2022/07/13 04:09:05;;;;;;;;;;;;;;;26.67;42.37;100019.19;2061323;28;19917;-69
2022/07/13 04:10:05;;;;;;;;;;;;;;;26.68;42.40;100013.47;2067863;28;20383;-69
2022/07/13 04:11:06;;;;;;;;;;;;;;;26.68;42.74;100016.22;2066932;28;20741;-69
2022/07/13 04:12:06;;;;;;;;;;;;;;;26.68;42.53;100015.38;2065942;28;19939;-69
2022/07/13 04:13:06;;;;;;;;;;;;;;;26.68;42.62;100019.00;2061034;28;20376;-69
2022/07/13 04:14:06;;;;;;;;;;;;;;;26.68;42.44;100026.44;2059686;28;19918;-69
2022/07/13 04:15:07;;;;;;;;;;;;;;;26.67;42.40;100019.19;2066724;28;19924;-69
2022/07/13 04:16:07;;;;;;;;;;;;;;;26.69;42.68;100028.13;2059893;28;19964;-69
2022/07/13 04:17:07;;;;;;;;;;;;;;;26.68;42.65;100026.44;2064891;28;20363;-69
2022/07/13 04:18:08;;;;;;;;;;;;;;;26.68;42.63;100029.19;2067100;28;20437;-69
2022/07/13 04:19:08;;;;;;;;;;;;;;;26.69;42.52;100030.91;2066433;28;19917;-70
2022/07/13 04:20:08;;;;;;;;;;;;;;;26.68;42.51;100037.50;2068659;28;19917;-69
2022/07/13 04:21:10;;;;;;;;;;;;;;;26.68;42.46;100034.72;2066127;28;19917;-69
2022/07/13 04:22:10;;;;;;;;;;;;;;;26.67;42.67;100035.75;2067881;28;19960;-69
2022/07/13 04:23:11;;;;;;;;;;;;;;;26.67;42.61;100035.75;2066637;28;19952;-69
2022/07/13 04:24:11;;;;;;;;;;;;;;;26.67;42.54;100041.28;2061968;28;19920;-69
2022/07/13 04:25:11;;;;;;;;;;;;;;;26.67;42.55;100039.38;2063964;28;19917;-69
2022/07/13 04:26:12;;;;;;;;;;;;;;;26.66;42.53;100034.06;2066436;28;20694;-69
2022/07/13 04:27:13;;;;;;;;;;;;;;;26.67;42.59;100044.06;2064028;28;20473;-69
2022/07/13 04:28:14;;;;;;;;;;;;;;;26.66;42.75;100039.59;2064081;28;19925;-69
2022/07/13 04:29:14;;;;;;;;;;;;;;;26.65;42.66;100038.72;2060641;28;19917;-69
2022/07/13 04:30:17;;;;;;;;;;;;;;;26.66;42.63;100039.59;2064875;28;19943;-69
2022/07/13 04:31:17;;;;;;;;;;;;;;;26.66;42.39;100045.13;2067585;28;19971;-69
2022/07/13 04:32:18;;;;;;;;;;;;;;;26.64;42.38;100044.47;2067403;28;19917;-70
2022/07/13 04:33:18;;;;;;;;;;;;;;;26.65;42.67;100037.88;2065788;28;19921;-69
2022/07/13 04:34:18;;;;;;;;;;;;;;;26.65;42.70;100046.16;2066092;28;19917;-69
2022/07/13 04:35:19;;;;;;;;;;;;;;;26.65;42.44;100044.25;2060808;28;20657;-69
2022/07/13 04:36:19;;;;;;;;;;;;;;;26.65;42.50;100043.41;2060643;28;20791;-69
2022/07/13 04:37:19;;;;;;;;;;;;;;;26.65;42.44;100044.25;2067946;28;19917;-69
2022/07/13 04:38:19;;;;;;;;;;;;;;;26.64;42.46;100039.78;2062343;28;19924;-69
2022/07/13 04:39:20;;;;;;;;;;;;;;;26.65;42.67;100040.63;2060538;28;19917;-69
2022/07/13 04:40:20;;;;;;;;;;;;;;;26.64;43.00;100047.25;2062643;28;19991;-69
2022/07/13 04:41:20;;;;;;;;;;;;;;;26.64;42.70;100050.84;2063052;28;20756;-69
2022/07/13 04:42:20;;;;;;;;;;;;;;;26.65;42.68;100037.88;2060868;28;19925;-69
2022/07/13 04:43:21;;;;;;;;;;;;;;;26.64;42.63;100041.72;2062652;28;20020;-69
2022/07/13 04:44:22;;;;;;;;;;;;;;;26.65;42.82;100047.00;2061093;28;20007;-70
2022/07/13 04:45:22;;;;;;;;;;;;;;;26.65;42.67;100043.41;2061361;28;19917;-69
2022/07/13 04:46:24;;;;;;;;;;;;;;;26.64;42.93;100045.31;2060899;28;19922;-69
2022/07/13 04:47:25;;;;;;;;;;;;;;;26.65;42.73;100048.94;2059892;28;19944;-69
2022/07/13 04:48:25;;;;;;;;;;;;;;;26.64;42.96;100042.56;2064434;28;19960;-69
2022/07/13 04:49:25;;;;;;;;;;;;;;;26.64;42.97;100039.78;2065681;28;19922;-69
2022/07/13 04:50:26;;;;;;;;;;;;;;;26.64;42.90;100047.25;2065386;28;19909;-69
2022/07/13 04:51:26;;;;;;;;;;;;;;;26.64;42.74;100047.25;2063343;28;19905;-69
2022/07/13 04:52:26;;;;;;;;;;;;;;;26.64;43.07;100038.94;2068223;28;19976;-69
2022/07/13 04:53:26;;;;;;;;;;;;;;;26.64;43.10;100036.19;2064746;28;19910;-69
2022/07/13 04:54:27;;;;;;;;;;;;;;;26.64;43.17;100044.47;2062055;28;19932;-69
2022/07/13 04:55:28;;;;;;;;;;;;;;;26.64;43.10;100047.25;2066736;28;19964;-69
2022/07/13 04:56:28;;;;;;;;;;;;;;;26.63;43.18;100043.63;2064284;28;19955;-69
2022/07/13 04:57:29;;;;;;;;;;;;;;;26.63;42.91;100039.97;2067212;28;20059;-69
2022/07/13 04:58:29;;;;;;;;;;;;;;;26.63;42.84;100045.50;2066482;28;20277;-69
2022/07/13 04:59:29;;;;;;;;;;;;;;;26.64;42.89;100047.25;2064533;28;19929;-68
2022/07/13 05:00:30;;;;;;;;;;;;;;;26.64;42.71;100047.25;2060173;28;19924;-69
2022/07/13 05:01:30;;;;;;;;;;;;;;;26.63;42.96;100045.50;2064080;28;19925;-69
2022/07/13 05:02:33;;;;;;;;;;;;;;;26.62;42.99;100050.19;2065132;28;19923;-69
2022/07/13 05:03:33;;;;;;;;;;;;;;;26.63;42.99;100048.28;2060497;28;19921;-69
2022/07/13 05:04:33;;;;;;;;;;;;;;;26.63;43.11;100051.03;2063284;28;20010;-69
2022/07/13 05:05:34;;;;;;;;;;;;;;;26.62;43.04;100052.94;2063745;28;20687;-68
2022/07/13 05:06:34;;;;;;;;;;;;;;;26.63;42.90;100054.69;2065138;28;19927;-69
2022/07/13 05:07:34;;;;;;;;;;;;;;;26.63;42.73;100053.81;2061793;28;19921;-69
2022/07/13 05:08:35;;;;;;;;;;;;;;;26.63;42.73;100056.56;2066869;28;20705;-69
2022/07/13 05:09:35;;;;;;;;;;;;;;;26.62;42.73;100058.47;2065436;28;19944;-69
2022/07/13 05:10:35;;;;;;;;;;;;;;;26.63;42.77;100062.09;2065920;28;20152;-69
2022/07/13 05:11:36;;;;;;;;;;;;;;;26.62;43.04;100058.47;2066309;28;20495;-69
2022/07/13 05:12:37;;;;;;;;;;;;;;;26.62;42.68;100054.88;2065491;28;19921;-69
2022/07/13 05:13:37;;;;;;;;;;;;;;;26.62;42.82;100054.88;2064968;28;19921;-69